WZZ4D1 LEAS-LEBB

Flight info

Callsign WZZ4D1
Flight time 0h 38m
Altitude 16000
Route LEVNO Q210 SNR
Aircraft A20N/M-V/N

Departure

Time 2026-05-08 14:19
Airport Asturias Airport (LEAS)

Arrival

Time 2026-05-08 14:58
Airport Bilbao Airport (LEBB)
Time Latitude Longitude Altitude Speed Heading
2026-05-08 14:05 43.55908 -6.02849 423 ft 0 kts 244°
2026-05-08 14:15 43.55909 -6.02860 423 ft 2 kts 310°
2026-05-08 14:15 43.55942 -6.02844 422 ft 8 kts 14°
2026-05-08 14:15 43.55987 -6.02900 421 ft 10 kts 324°
2026-05-08 14:15 43.56045 -6.02853 419 ft 13 kts 95°
2026-05-08 14:16 43.56012 -6.02717 417 ft 16 kts 110°
2026-05-08 14:16 43.55976 -6.02560 413 ft 19 kts 107°
2026-05-08 14:16 43.55939 -6.02397 405 ft 18 kts 106°
2026-05-08 14:16 43.55972 -6.02288 399 ft 3 kts 60°
2026-05-08 14:17 43.55973 -6.02286 399 ft 0 kts 60°
2026-05-08 14:17 43.55993 -6.02233 395 ft 18 kts 61°
2026-05-08 14:18 43.56060 -6.02220 395 ft 5 kts 300°
2026-05-08 14:18 43.56067 -6.02239 396 ft 0 kts 292°
2026-05-08 14:18 43.56074 -6.02264 398 ft 19 kts 291°
2026-05-08 14:19 43.56204 -6.02812 416 ft 98 kts 287°
2026-05-08 14:19 43.56496 -6.04007 427 ft 160 kts 291°
2026-05-08 14:19 43.56862 -6.05471 1010 ft 166 kts 288°
2026-05-08 14:19 43.57212 -6.06962 1758 ft 169 kts 285°
2026-05-08 14:20 43.57558 -6.08484 2531 ft 169 kts 285°
2026-05-08 14:20 43.57916 -6.10049 3113 ft 178 kts 286°
2026-05-08 14:20 43.58316 -6.11730 3611 ft 193 kts 287°
2026-05-08 14:20 43.58763 -6.13574 4110 ft 211 kts 286°
2026-05-08 14:21 43.59353 -6.15468 4607 ft 229 kts 304°
2026-05-08 14:21 43.60685 -6.16810 5175 ft 246 kts 345°
2026-05-08 14:21 43.62322 -6.16837 6191 ft 239 kts 17°
2026-05-08 14:21 43.63887 -6.16130 7094 ft 241 kts 22°
2026-05-08 14:22 43.65487 -6.15347 7912 ft 246 kts 21°
2026-05-08 14:22 43.67108 -6.14574 8754 ft 251 kts 21°
2026-05-08 14:22 43.68766 -6.13807 9587 ft 256 kts 20°
2026-05-08 14:22 43.70448 -6.13018 10413 ft 259 kts 26°
2026-05-08 14:23 43.71865 -6.11602 11205 ft 255 kts 58°
2026-05-08 14:23 43.72546 -6.09379 11900 ft 254 kts 88°
2026-05-08 14:23 43.72566 -6.06913 12441 ft 267 kts 95°
2026-05-08 14:23 43.72530 -6.04289 12920 ft 285 kts 95°
2026-05-08 14:24 43.72509 -6.01456 13390 ft 303 kts 94°
2026-05-08 14:24 43.72501 -5.98447 13829 ft 322 kts 94°
2026-05-08 14:24 43.72502 -5.95298 14239 ft 340 kts 94°
2026-05-08 14:24 43.72508 -5.91959 14585 ft 358 kts 93°
2026-05-08 14:25 43.72517 -5.88420 14937 ft 376 kts 93°
2026-05-08 14:25 43.72528 -5.84752 15213 ft 393 kts 92°
2026-05-08 14:25 43.72541 -5.80922 15491 ft 408 kts 92°
2026-05-08 14:25 43.72555 -5.76946 15791 ft 417 kts 92°
2026-05-08 14:26 43.72568 -5.72940 15863 ft 419 kts 92°
2026-05-08 14:26 43.72579 -5.68928 15845 ft 419 kts 92°
2026-05-08 14:26 43.72587 -5.64920 15843 ft 419 kts 92°
2026-05-08 14:26 43.72595 -5.60844 15858 ft 420 kts 92°
2026-05-08 14:27 43.72601 -5.56821 15846 ft 419 kts 93°
2026-05-08 14:27 43.72604 -5.52815 15844 ft 420 kts 92°
2026-05-08 14:27 43.72604 -5.48813 15857 ft 419 kts 92°
2026-05-08 14:27 43.72605 -5.44767 15854 ft 419 kts 92°
2026-05-08 14:28 43.72595 -5.40762 15859 ft 419 kts 94°
2026-05-08 14:28 43.72404 -5.36736 15859 ft 418 kts 98°
2026-05-08 14:28 43.71971 -5.32782 15870 ft 416 kts 104°
2026-05-08 14:28 43.71320 -5.28875 15870 ft 416 kts 107°
2026-05-08 14:29 43.70618 -5.25035 15872 ft 416 kts 107°
2026-05-08 14:29 43.69901 -5.21168 15868 ft 416 kts 107°
2026-05-08 14:29 43.69185 -5.17310 15868 ft 416 kts 107°
2026-05-08 14:29 43.68470 -5.13455 15858 ft 416 kts 107°
2026-05-08 14:30 43.67749 -5.09572 15872 ft 417 kts 107°
2026-05-08 14:30 43.67036 -5.05722 15855 ft 417 kts 107°
2026-05-08 14:30 43.66321 -5.01875 15874 ft 417 kts 107°
2026-05-08 14:30 43.65592 -4.97955 15871 ft 417 kts 107°
2026-05-08 14:31 43.64876 -4.94109 15857 ft 417 kts 107°
2026-05-08 14:31 43.64158 -4.90252 15854 ft 417 kts 107°
2026-05-08 14:31 43.63432 -4.86366 15860 ft 417 kts 107°
2026-05-08 14:32 43.61982 -4.78631 15862 ft 417 kts 107°
2026-05-08 14:32 43.61258 -4.74776 15867 ft 416 kts 107°
2026-05-08 14:32 43.60533 -4.70932 15874 ft 417 kts 107°
2026-05-08 14:32 43.59799 -4.67044 15868 ft 417 kts 107°
2026-05-08 14:33 43.59071 -4.63192 15850 ft 417 kts 107°
2026-05-08 14:33 43.58338 -4.59324 15876 ft 416 kts 107°
2026-05-08 14:33 43.57610 -4.55488 15862 ft 416 kts 107°
2026-05-08 14:33 43.56873 -4.51620 15879 ft 416 kts 107°
2026-05-08 14:34 43.56148 -4.47812 15882 ft 416 kts 107°
2026-05-08 14:34 43.55405 -4.43918 15878 ft 416 kts 107°
2026-05-08 14:34 43.54674 -4.40101 15858 ft 416 kts 107°
2026-05-08 14:34 43.53933 -4.36241 15874 ft 416 kts 107°
2026-05-08 14:35 43.53186 -4.32360 15881 ft 416 kts 108°
2026-05-08 14:35 43.52441 -4.28520 15875 ft 416 kts 108°
2026-05-08 14:35 43.51701 -4.24704 15859 ft 416 kts 108°
2026-05-08 14:35 43.50957 -4.20878 15874 ft 416 kts 108°
2026-05-08 14:36 43.50203 -4.17005 15872 ft 416 kts 108°
2026-05-08 14:36 43.49454 -4.13153 15868 ft 416 kts 108°
2026-05-08 14:36 43.48711 -4.09347 15870 ft 416 kts 108°
2026-05-08 14:36 43.47963 -4.05518 15884 ft 416 kts 108°
2026-05-08 14:37 43.47212 -4.01681 15883 ft 416 kts 108°
2026-05-08 14:37 43.46453 -3.97816 15886 ft 416 kts 108°
2026-05-08 14:37 43.45702 -3.93992 15888 ft 416 kts 108°
2026-05-08 14:37 43.44978 -3.90165 15884 ft 416 kts 106°
2026-05-08 14:38 43.44373 -3.86266 15881 ft 417 kts 104°
2026-05-08 14:38 43.43799 -3.82363 15879 ft 417 kts 104°
2026-05-08 14:38 43.43230 -3.78480 15879 ft 418 kts 104°
2026-05-08 14:38 43.42653 -3.74553 15878 ft 418 kts 104°
2026-05-08 14:39 43.42081 -3.70669 15871 ft 418 kts 104°
2026-05-08 14:39 43.41505 -3.66764 15875 ft 418 kts 104°
2026-05-08 14:39 43.40919 -3.62805 15874 ft 419 kts 104°
2026-05-08 14:39 43.40342 -3.58917 15875 ft 419 kts 104°
2026-05-08 14:40 43.39761 -3.55016 15865 ft 419 kts 104°
2026-05-08 14:40 43.39173 -3.51074 15873 ft 419 kts 104°
2026-05-08 14:40 43.38593 -3.47195 15852 ft 419 kts 104°
2026-05-08 14:40 43.38000 -3.43236 15868 ft 419 kts 104°
2026-05-08 14:41 43.37414 -3.39331 15689 ft 418 kts 104°
2026-05-08 14:41 43.36831 -3.35432 15369 ft 416 kts 104°
2026-05-08 14:41 43.36265 -3.31610 14991 ft 413 kts 105°
2026-05-08 14:41 43.35692 -3.27770 14614 ft 410 kts 105°
2026-05-08 14:42 43.35118 -3.23927 14205 ft 407 kts 105°
2026-05-08 14:42 43.34555 -3.20151 13852 ft 404 kts 104°
2026-05-08 14:42 43.33995 -3.16394 13462 ft 401 kts 105°
2026-05-08 14:42 43.33445 -3.12683 13079 ft 398 kts 105°
2026-05-08 14:43 43.32904 -3.09027 12739 ft 386 kts 105°
2026-05-08 14:43 43.32381 -3.05488 12469 ft 370 kts 105°
2026-05-08 14:43 43.31883 -3.02084 12200 ft 357 kts 104°
2026-05-08 14:43 43.31410 -2.98826 11944 ft 344 kts 104°
2026-05-08 14:44 43.30954 -2.95687 11696 ft 332 kts 104°
2026-05-08 14:44 43.30513 -2.92612 11439 ft 322 kts 104°
2026-05-08 14:44 43.30087 -2.89639 11189 ft 312 kts 104°
2026-05-08 14:44 43.29678 -2.86783 10938 ft 303 kts 104°
2026-05-08 14:45 43.29274 -2.83974 10642 ft 295 kts 104°
2026-05-08 14:45 43.28894 -2.81303 10284 ft 282 kts 104°
2026-05-08 14:45 43.28525 -2.78699 9886 ft 278 kts 104°
2026-05-08 14:45 43.28155 -2.76124 9478 ft 277 kts 104°
2026-05-08 14:46 43.27779 -2.73533 9051 ft 276 kts 104°
2026-05-08 14:46 43.27395 -2.70943 8638 ft 276 kts 104°
2026-05-08 14:46 43.27013 -2.68382 8215 ft 276 kts 105°
2026-05-08 14:46 43.26629 -2.65816 7805 ft 275 kts 105°
2026-05-08 14:47 43.26238 -2.63219 7381 ft 275 kts 104°
2026-05-08 14:47 43.25851 -2.60674 7000 ft 273 kts 104°
2026-05-08 14:47 43.25461 -2.58131 6633 ft 271 kts 104°
2026-05-08 14:47 43.25071 -2.55600 6288 ft 267 kts 104°
2026-05-08 14:48 43.24696 -2.53154 6135 ft 257 kts 104°
2026-05-08 14:48 43.24342 -2.50807 6020 ft 246 kts 104°
2026-05-08 14:48 43.24004 -2.48554 6016 ft 242 kts 104°
2026-05-08 14:48 43.23664 -2.46292 6017 ft 243 kts 104°
2026-05-08 14:49 43.23325 -2.44034 6010 ft 245 kts 104°
2026-05-08 14:49 43.22877 -2.41703 6001 ft 251 kts 117°
2026-05-08 14:49 43.21818 -2.39927 5989 ft 235 kts 148°
2026-05-08 14:49 43.20303 -2.39223 5997 ft 235 kts 177°
2026-05-08 14:50 43.18723 -2.39725 6010 ft 239 kts 207°
2026-05-08 14:50 43.17538 -2.41314 6020 ft 246 kts 237°
2026-05-08 14:50 43.17016 -2.43581 6034 ft 252 kts 256°
2026-05-08 14:50 43.16787 -2.45973 6024 ft 253 kts 260°
2026-05-08 14:51 43.16613 -2.48352 6021 ft 251 kts 261°
2026-05-08 14:51 43.16476 -2.50664 6005 ft 238 kts 266°
2026-05-08 14:51 43.16581 -2.52873 6004 ft 230 kts 273°
2026-05-08 14:51 43.16921 -2.55009 5978 ft 225 kts 284°
2026-05-08 14:52 43.17516 -2.56965 5882 ft 218 kts 294°
2026-05-08 14:52 43.18973 -2.60633 5284 ft 221 kts 295°
2026-05-08 14:52 43.19701 -2.62510 4952 ft 223 kts 294°
2026-05-08 14:53 43.20403 -2.64388 4686 ft 220 kts 294°
2026-05-08 14:53 43.21079 -2.66239 4385 ft 216 kts 294°
2026-05-08 14:53 43.21740 -2.68071 4031 ft 215 kts 293°
2026-05-08 14:53 43.22397 -2.69895 3687 ft 213 kts 294°
2026-05-08 14:54 43.23055 -2.71718 3348 ft 207 kts 293°
2026-05-08 14:54 43.23677 -2.73431 3028 ft 195 kts 293°
2026-05-08 14:54 43.24261 -2.75040 2750 ft 187 kts 294°
2026-05-08 14:54 43.24836 -2.76623 2485 ft 180 kts 295°
2026-05-08 14:55 43.25384 -2.78131 2222 ft 173 kts 295°
2026-05-08 14:55 43.25904 -2.79557 1981 ft 165 kts 295°
2026-05-08 14:55 43.26423 -2.80973 1725 ft 168 kts 295°
2026-05-08 14:55 43.26942 -2.82379 1540 ft 160 kts 295°
2026-05-08 14:56 43.27434 -2.83716 1295 ft 152 kts 294°
2026-05-08 14:56 43.27874 -2.84991 1047 ft 144 kts 294°
2026-05-08 14:56 43.28325 -2.86202 816 ft 141 kts 295°
2026-05-08 14:56 43.28769 -2.87376 637 ft 137 kts 295°
2026-05-08 14:57 43.29186 -2.88525 426 ft 131 kts 295°
2026-05-08 14:57 43.29592 -2.89646 231 ft 133 kts 295°
2026-05-08 14:57 43.29993 -2.90744 137 ft 120 kts 295°
2026-05-08 14:57 43.30288 -2.91574 142 ft 71 kts 297°
2026-05-08 14:58 43.30498 -2.91963 147 ft 34 kts 323°
2026-05-08 14:58 43.30595 -2.92046 149 ft 10 kts 342°
2026-05-08 14:58 43.30603 -2.92049 150 ft 0 kts 358°
2026-05-08 14:58 43.30609 -2.92048 150 ft 6 kts
2026-05-08 14:59 43.30627 -2.92030 154 ft 0 kts 55°
2026-05-08 14:59 43.30566 -2.91800 163 ft 21 kts 115°
2026-05-08 14:59 43.30497 -2.91611 162 ft 22 kts 117°
2026-05-08 15:00 43.30426 -2.91420 160 ft 22 kts 116°
2026-05-08 15:00 43.30354 -2.91223 155 ft 16 kts 117°
2026-05-08 15:00 43.30312 -2.91110 152 ft 14 kts 116°
2026-05-08 15:00 43.30349 -2.91009 155 ft 12 kts 26°
2026-05-08 15:01 43.30403 -2.90942 158 ft 9 kts 79°
2026-05-08 15:01 43.30406 -2.90841 158 ft 8 kts 88°
2026-05-08 15:01 43.30413 -2.90781 161 ft 3 kts 49°
2026-05-08 15:01 43.30438 -2.90759 163 ft 7 kts 28°
2026-05-08 15:02 43.30459 -2.90744 163 ft 0 kts 27°